createdAt,value
2022-11-05T00:00:39.503Z,94338.94
2022-11-05T00:03:26.229Z,94339.50
2022-11-05T00:06:12.738Z,94338.97
2022-11-05T00:08:59.601Z,94357.09
2022-11-05T00:11:45.647Z,94349.34
2022-11-05T00:14:32.265Z,94333.91
2022-11-05T00:16:59.769Z,94349.63
2022-11-05T00:19:27.166Z,94365.34
2022-11-05T00:22:12.885Z,94362.41
2022-11-05T00:24:58.706Z,94357.34
2022-11-05T00:27:26.264Z,94364.84
2022-11-05T00:29:53.595Z,94368.03
2022-11-05T00:32:22.435Z,94369.63
2022-11-05T00:34:49.955Z,94353.41
2022-11-05T00:37:17.049Z,94379.47
2022-11-05T00:39:44.244Z,94377.06
2022-11-05T00:42:30.236Z,94374.97
2022-11-05T00:45:03.410Z,94391.22
2022-11-05T00:48:11.051Z,94377.66
2022-11-05T00:50:38.306Z,94393.09
2022-11-05T00:53:05.987Z,94408.28
2022-11-05T00:55:42.968Z,94406.41
2022-11-05T00:58:19.459Z,94404.00
2022-11-05T01:00:57.972Z,94399.75
2022-11-05T01:03:31.697Z,94393.09
2022-11-05T01:06:26.425Z,94400.84
2022-11-05T01:08:55.991Z,94398.97
2022-11-05T01:11:37.430Z,94394.41
2022-11-05T01:14:13.643Z,94396.56
2022-11-05T01:16:41.195Z,94396.28
2022-11-05T01:19:10.497Z,94409.63
2022-11-05T01:21:37.952Z,94410.41
2022-11-05T01:24:05.351Z,94400.03
2022-11-05T01:26:33.062Z,94397.91
2022-11-05T01:29:00.598Z,94402.16
2022-11-05T01:31:28.618Z,94406.94
2022-11-05T01:33:56.000Z,94413.06
2022-11-05T01:36:23.078Z,94395.75
2022-11-05T01:38:50.313Z,94402.41
2022-11-05T01:41:17.480Z,94395.50
2022-11-05T01:43:56.772Z,94395.75
2022-11-05T01:46:31.002Z,94406.41
2022-11-05T01:49:09.585Z,94399.75
2022-11-05T01:51:37.253Z,94392.03
2022-11-05T01:54:10.143Z,94404.56
2022-11-05T01:57:03.019Z,94415.75
2022-11-05T01:59:40.210Z,94422.97
2022-11-05T02:02:08.744Z,94434.94
2022-11-05T02:04:54.043Z,94447.75
2022-11-05T02:07:24.015Z,94454.69
2022-11-05T02:10:04.404Z,94439.22
2022-11-05T02:12:32.766Z,94446.16
2022-11-05T02:15:00.156Z,94442.69
2022-11-05T02:17:51.826Z,94446.16
2022-11-05T02:21:04.373Z,94445.09
2022-11-05T02:24:13.355Z,94443.75
2022-11-05T02:27:07.628Z,94457.88
2022-11-05T02:30:07.111Z,94462.69
2022-11-05T02:32:58.172Z,94452.28
2022-11-05T02:35:42.179Z,94468.28
2022-11-05T02:38:40.047Z,94462.16
2022-11-05T02:41:18.871Z,94460.28
2022-11-05T02:44:13.443Z,94453.34
2022-11-05T02:46:45.317Z,94447.50
2022-11-05T02:49:33.477Z,94452.56
2022-11-05T02:52:36.029Z,94460.00
2022-11-05T02:55:38.874Z,94451.78
2022-11-05T02:58:06.965Z,94452.84
2022-11-05T03:00:52.335Z,94450.16
2022-11-05T03:03:33.660Z,94450.16
2022-11-05T03:06:34.475Z,94445.34
2022-11-05T03:09:32.438Z,94452.56
2022-11-05T03:12:10.082Z,94454.19
2022-11-05T03:15:14.170Z,94457.63
2022-11-05T03:17:53.280Z,94460.56
2022-11-05T03:20:28.984Z,94448.84
2022-11-05T03:23:10.821Z,94440.31
2022-11-05T03:25:47.924Z,94445.38
2022-11-05T03:28:18.007Z,94446.69
2022-11-05T03:30:46.018Z,94453.63
2022-11-05T03:33:20.957Z,94453.63
2022-11-05T03:36:01.638Z,94449.38
2022-11-05T03:38:34.619Z,94464.28
2022-11-05T03:41:07.852Z,94462.69
2022-11-05T03:43:47.229Z,94465.91
2022-11-05T03:46:48.069Z,94474.69
2022-11-05T03:49:25.234Z,94477.88
2022-11-05T03:52:08.511Z,94479.22
2022-11-05T03:54:36.276Z,94473.63
2022-11-05T03:57:26.087Z,94475.50
2022-11-05T03:59:53.239Z,94471.22
2022-11-05T04:02:25.511Z,94471.25
2022-11-05T04:04:54.429Z,94480.81
2022-11-05T04:07:40.634Z,94476.56
2022-11-05T04:10:26.751Z,94477.63
2022-11-05T04:13:12.860Z,94479.22
2022-11-05T04:15:59.015Z,94489.63
2022-11-05T04:18:26.385Z,94490.13
2022-11-05T04:21:12.271Z,94489.88
2022-11-05T04:23:58.150Z,94499.22
2022-11-05T04:26:25.959Z,94497.88
2022-11-05T04:29:22.709Z,94497.63
2022-11-05T04:31:50.762Z,94500.28
2022-11-05T04:34:22.300Z,94488.78
2022-11-05T04:36:53.446Z,94485.28
2022-11-05T04:39:21.662Z,94488.50
2022-11-05T04:41:49.283Z,94500.00
2022-11-05T04:44:17.035Z,94481.34
2022-11-05T04:46:44.345Z,94461.84
2022-11-05T04:49:11.816Z,94476.81
2022-11-05T04:51:38.908Z,94478.69
2022-11-05T04:54:06.197Z,94492.00
2022-11-05T04:56:33.495Z,94497.06
2022-11-05T04:59:00.804Z,94495.47
2022-11-05T05:01:28.189Z,94485.56
2022-11-05T05:03:55.656Z,94497.06
2022-11-05T05:06:23.142Z,94492.00
2022-11-05T05:08:51.996Z,94513.06
2022-11-05T05:11:21.997Z,94512.47
2022-11-05T05:13:50.116Z,94514.13
2022-11-05T05:16:23.976Z,94504.28
2022-11-05T05:18:52.764Z,94505.88
2022-11-05T05:21:41.313Z,94497.03
2022-11-05T05:24:18.871Z,94506.66
2022-11-05T05:26:52.274Z,94528.78
2022-11-05T05:29:19.647Z,94527.69
2022-11-05T05:31:46.937Z,94531.72
2022-11-05T05:34:15.383Z,94521.03
2022-11-05T05:36:42.879Z,94545.31
2022-11-05T05:39:13.203Z,94554.84
2022-11-05T05:41:40.493Z,94567.94
2022-11-05T05:44:08.075Z,94577.78
2022-11-05T05:46:35.562Z,94583.66
2022-11-05T05:49:05.489Z,94581.78
2022-11-05T05:51:36.872Z,94580.16
2022-11-05T05:54:04.468Z,94598.63
2022-11-05T05:56:31.669Z,94600.44
2022-11-05T05:59:01.720Z,94608.22
2022-11-05T06:01:29.183Z,94611.94
2022-11-05T06:03:56.839Z,94610.06
2022-11-05T06:06:24.021Z,94621.75
2022-11-05T06:08:51.093Z,94632.94
2022-11-05T06:11:18.646Z,94638.59
2022-11-05T06:13:46.050Z,94635.63
2022-11-05T06:16:13.642Z,94645.75
2022-11-05T06:18:41.385Z,94634.56
2022-11-05T06:21:12.483Z,94641.25
2022-11-05T06:23:42.313Z,94630.03
2022-11-05T06:26:17.407Z,94629.22
2022-11-05T06:28:45.775Z,94636.41
2022-11-05T06:31:14.889Z,94628.13
2022-11-05T06:33:42.620Z,94642.78
2022-11-05T06:36:15.914Z,94656.94
2022-11-05T06:38:43.233Z,94652.66
2022-11-05T06:41:10.909Z,94653.72
2022-11-05T06:43:38.791Z,94650.00
2022-11-05T06:46:06.647Z,94656.09
2022-11-05T06:48:34.734Z,94669.16
2022-11-05T06:51:02.269Z,94677.44
2022-11-05T06:53:30.519Z,94690.75
2022-11-05T06:55:57.648Z,94693.19
2022-11-05T06:58:25.533Z,94690.47
2022-11-05T07:00:53.893Z,94692.38
2022-11-05T07:03:22.638Z,94695.03
2022-11-05T07:05:53.750Z,94682.50
2022-11-05T07:08:20.931Z,94688.09
2022-11-05T07:10:48.974Z,94688.09
2022-11-05T07:13:16.500Z,94691.03
2022-11-05T07:15:44.591Z,94704.09
2022-11-05T07:18:11.904Z,94705.69
2022-11-05T07:20:39.317Z,94693.16
2022-11-05T07:23:14.314Z,94698.25
2022-11-05T07:25:43.516Z,94709.41
2022-11-05T07:28:11.367Z,94699.56
2022-11-05T07:30:39.623Z,94701.13
2022-11-05T07:33:08.010Z,94702.25
2022-11-05T07:35:35.834Z,94701.19
2022-11-05T07:38:03.158Z,94695.56
2022-11-05T07:40:31.008Z,94693.16
2022-11-05T07:43:00.631Z,94715.31
2022-11-05T07:45:30.220Z,94693.94
2022-11-05T07:48:00.785Z,94702.72
2022-11-05T07:50:31.636Z,94725.69
2022-11-05T07:53:15.548Z,94733.16
2022-11-05T07:55:43.843Z,94740.34
2022-11-05T07:58:11.719Z,94749.16
2022-11-05T08:00:39.092Z,94755.84
2022-11-05T08:03:13.567Z,94765.47
2022-11-05T08:05:44.726Z,94769.97
2022-11-05T08:08:15.083Z,94759.56
2022-11-05T08:10:43.599Z,94753.66
2022-11-05T08:13:12.204Z,94758.25
2022-11-05T08:15:39.729Z,94771.31
2022-11-05T08:18:15.555Z,94761.97
2022-11-05T08:20:44.874Z,94770.25
2022-11-05T08:23:12.673Z,94757.38
2022-11-05T08:25:41.014Z,94768.41
2022-11-05T08:28:11.859Z,94759.00
2022-11-05T08:30:39.157Z,94757.19
2022-11-05T08:33:10.951Z,94755.88
2022-11-05T08:35:39.438Z,94762.25
2022-11-05T08:38:09.136Z,94760.69
2022-11-05T08:40:38.276Z,94756.66
2022-11-05T08:43:11.098Z,94771.38
2022-11-05T08:45:39.048Z,94765.97
2022-11-05T08:48:12.767Z,94766.03
2022-11-05T08:50:40.217Z,94759.59
2022-11-05T08:53:10.836Z,94770.28
2022-11-05T08:55:38.616Z,94783.59
2022-11-05T08:58:12.746Z,94785.22
2022-11-05T09:00:41.261Z,94779.34
2022-11-05T09:03:09.704Z,94791.88
2022-11-05T09:05:39.673Z,94776.97
2022-11-05T09:08:09.806Z,94782.31
2022-11-05T09:10:37.994Z,94788.44
2022-11-05T09:13:06.330Z,94788.44
2022-11-05T09:15:35.533Z,94796.44
2022-11-05T09:18:05.736Z,94790.25
2022-11-05T09:20:34.453Z,94805.75
2022-11-05T09:23:02.463Z,94793.75
2022-11-05T09:25:30.476Z,94809.19
2022-11-05T09:28:14.652Z,94802.53
2022-11-05T09:30:46.908Z,94807.09
2022-11-05T09:33:14.919Z,94815.88
2022-11-05T09:35:42.973Z,94804.13
2022-11-05T09:38:10.481Z,94797.47
2022-11-05T09:40:52.364Z,94817.75
2022-11-05T09:43:31.181Z,94819.63
2022-11-05T09:46:06.282Z,94819.06
2022-11-05T09:48:35.759Z,94810.53
2022-11-05T09:51:06.256Z,94816.97
2022-11-05T09:53:41.347Z,94816.97
2022-11-05T09:56:25.334Z,94833.75
2022-11-05T09:59:01.629Z,94822.28
2022-11-05T10:01:36.127Z,94824.97
2022-11-05T10:04:10.537Z,94828.41
2022-11-05T10:06:49.148Z,94818.81
2022-11-05T10:09:28.046Z,94833.75
2022-11-05T10:12:13.007Z,94842.81
2022-11-05T10:14:52.119Z,94848.41
2022-11-05T10:17:26.784Z,94830.22
2022-11-05T10:20:13.801Z,94849.19
2022-11-05T10:22:43.985Z,94848.41
2022-11-05T10:25:21.870Z,94846.53
2022-11-05T10:27:59.968Z,94846.53
2022-11-05T10:30:27.155Z,94850.25
2022-11-05T10:32:59.554Z,94852.41
2022-11-05T10:35:30.722Z,94854.78
2022-11-05T10:37:57.994Z,94853.72
2022-11-05T10:40:46.610Z,94858.53
2022-11-05T10:43:25.345Z,94850.81
2022-11-05T10:46:42.517Z,94866.25
2022-11-05T10:49:40.175Z,94860.38
2022-11-05T10:52:29.277Z,94854.78
2022-11-05T10:55:01.681Z,94849.44
2022-11-05T10:57:40.111Z,94864.38
2022-11-05T11:00:16.727Z,94862.50
2022-11-05T11:02:52.801Z,94866.00
2022-11-05T11:05:28.426Z,94866.78
2022-11-05T11:08:13.945Z,94866.78
2022-11-05T11:11:08.296Z,94874.00
2022-11-05T11:13:57.503Z,94873.19
2022-11-05T11:16:28.204Z,94866.78
2022-11-05T11:19:00.814Z,94866.78
2022-11-05T11:21:30.950Z,94877.47
2022-11-05T11:24:06.816Z,94868.63
2022-11-05T11:26:39.005Z,94875.59
2022-11-05T11:29:26.708Z,94869.47
2022-11-05T11:31:59.063Z,94862.22
2022-11-05T11:34:38.881Z,94860.38
2022-11-05T11:37:19.380Z,94869.19
2022-11-05T11:39:57.348Z,94874.53
2022-11-05T11:42:34.202Z,94858.78
2022-11-05T11:45:20.451Z,94867.59
2022-11-05T11:47:51.072Z,94864.41
2022-11-05T11:50:37.343Z,94868.97
2022-11-05T11:53:37.210Z,94871.84
2022-11-05T11:56:20.390Z,94870.28
2022-11-05T11:58:50.572Z,94865.25
2022-11-05T12:01:41.792Z,94861.47
2022-11-05T12:04:36.169Z,94862.56
2022-11-05T12:07:27.644Z,94859.63
2022-11-05T12:10:37.443Z,94873.22
2022-11-05T12:14:02.575Z,94863.84
2022-11-05T12:16:35.440Z,94878.00
2022-11-05T12:19:14.651Z,94879.63
2022-11-05T12:22:05.253Z,94890.28
2022-11-05T12:25:21.910Z,94884.94
2022-11-05T12:28:29.899Z,94895.06
2022-11-05T12:31:44.466Z,94894.78
2022-11-05T12:35:25.884Z,94899.84
2022-11-05T12:38:33.631Z,94904.94
2022-11-05T12:41:33.788Z,94901.19
2022-11-05T12:44:19.815Z,94900.41
2022-11-05T12:47:16.704Z,94892.41
2022-11-05T12:50:00.415Z,94894.78
2022-11-05T12:53:30.267Z,94888.94
2022-11-05T12:56:03.213Z,94888.38
2022-11-05T12:58:43.337Z,94897.22
2022-11-05T13:01:33.381Z,94890.53
2022-11-05T13:04:09.392Z,94899.63
2022-11-05T13:06:43.399Z,94897.75
2022-11-05T13:09:34.826Z,94896.94
2022-11-05T13:12:18.393Z,94904.13
2022-11-05T13:15:01.304Z,94900.97
2022-11-05T13:17:53.481Z,94893.75
2022-11-05T13:20:25.510Z,94895.94
2022-11-05T13:23:32.000Z,94893.00
2022-11-05T13:26:19.947Z,94888.72
2022-11-05T13:29:04.073Z,94889.28
2022-11-05T13:31:40.538Z,94893.03
2022-11-05T13:34:13.245Z,94902.13
2022-11-05T13:37:17.538Z,94895.44
2022-11-05T13:39:55.564Z,94890.91
2022-11-05T13:42:59.618Z,94901.84
2022-11-05T13:46:08.924Z,94910.13
2022-11-05T13:49:16.626Z,94911.97
2022-11-05T13:52:13.737Z,94919.19
2022-11-05T13:55:24.289Z,94916.53
2022-11-05T13:58:47.958Z,94921.28
2022-11-05T14:01:47.429Z,94930.34
2022-11-05T14:05:00.741Z,94929.00
2022-11-05T14:07:32.839Z,94939.44
2022-11-05T14:10:06.892Z,94947.69
2022-11-05T14:12:37.638Z,94938.34
2022-11-05T14:15:21.517Z,94946.63
2022-11-05T14:18:05.687Z,94955.47
2022-11-05T14:20:32.571Z,94958.13
2022-11-05T14:23:26.403Z,94966.66
2022-11-05T14:26:15.830Z,94968.25
2022-11-05T14:29:37.117Z,94990.13
2022-11-05T14:32:27.569Z,94989.56
2022-11-05T14:35:18.312Z,94991.19
2022-11-05T14:37:57.036Z,94983.97
2022-11-05T14:40:42.480Z,94993.31
2022-11-05T14:43:24.321Z,94986.66
2022-11-05T14:49:09.041Z,94998.13
2022-11-05T14:51:44.109Z,94990.91
2022-11-05T14:54:45.190Z,94988.78
2022-11-05T14:57:42.349Z,94997.31
2022-11-05T15:00:40.927Z,94996.53
2022-11-05T15:03:32.904Z,94993.03
2022-11-05T15:06:22.177Z,94999.44
2022-11-05T15:08:49.191Z,95003.19
2022-11-05T15:11:38.850Z,95010.16
2022-11-05T15:14:27.923Z,95007.97
2022-11-05T15:17:14.137Z,95011.47
2022-11-05T15:19:42.655Z,95003.69
2022-11-05T15:22:41.063Z,95015.75
2022-11-05T15:25:27.049Z,95012.25
2022-11-05T15:28:29.496Z,95021.88
2022-11-05T15:31:32.621Z,95030.94
2022-11-05T15:34:25.371Z,95029.56
2022-11-05T15:37:18.902Z,95031.44
2022-11-05T15:39:49.400Z,95030.38
2022-11-05T15:42:23.954Z,95033.31
2022-11-05T15:44:57.171Z,95031.94
2022-11-05T15:47:28.398Z,95040.28
2022-11-05T15:50:08.676Z,95036.00
2022-11-05T15:52:50.380Z,95042.94
2022-11-05T15:55:23.605Z,95040.53
2022-11-05T15:57:58.525Z,95038.38
2022-11-05T16:00:29.721Z,95033.59
2022-11-05T16:03:33.993Z,95047.47
2022-11-05T16:06:01.854Z,95044.28
2022-11-05T16:08:30.636Z,95043.75
2022-11-05T16:11:00.398Z,95048.53
2022-11-05T16:13:39.487Z,95062.97
2022-11-05T16:16:30.658Z,95050.16
2022-11-05T16:18:57.991Z,95062.97
2022-11-05T16:21:25.281Z,95062.13
2022-11-05T16:23:54.269Z,95068.00
2022-11-05T16:29:33.024Z,95071.22
2022-11-05T16:32:04.766Z,95072.84
2022-11-05T16:35:15.710Z,95077.38
2022-11-05T16:37:46.447Z,95069.88
2022-11-05T16:40:21.744Z,95078.66
2022-11-05T16:42:51.572Z,95093.38
2022-11-05T16:45:23.678Z,95088.84
2022-11-05T16:47:51.527Z,95077.91
2022-11-05T16:50:26.670Z,95081.41
2022-11-05T16:52:55.021Z,95083.25
2022-11-05T16:55:22.606Z,95077.09
2022-11-05T16:57:53.642Z,95076.81
2022-11-05T17:00:22.531Z,95087.78
2022-11-05T17:02:50.344Z,95092.06
2022-11-05T17:05:26.870Z,95087.22
2022-11-05T17:07:54.955Z,95090.19
2022-11-05T17:10:24.439Z,95077.88
2022-11-05T17:17:22.748Z,95097.34
2022-11-05T17:19:50.042Z,95090.91
2022-11-05T17:22:17.164Z,95102.19
2022-11-05T17:24:44.264Z,95107.78
2022-11-05T17:27:11.361Z,95109.63
2022-11-05T17:29:38.714Z,95100.78
2022-11-05T17:32:06.799Z,95117.13
2022-11-05T17:34:34.026Z,95119.53
2022-11-05T17:37:00.985Z,95127.03
2022-11-05T17:39:31.591Z,95129.72
2022-11-05T17:41:59.298Z,95131.28
2022-11-05T17:44:26.720Z,95124.88
2022-11-05T17:46:54.290Z,95143.34
2022-11-05T17:49:21.340Z,95130.75
2022-11-05T17:51:48.943Z,95130.25
2022-11-05T17:54:16.692Z,95130.25
2022-11-05T17:56:44.898Z,95138.81
2022-11-05T17:59:12.165Z,95142.78
2022-11-05T18:01:43.369Z,95145.50
2022-11-05T18:04:11.037Z,95152.44
2022-11-05T18:06:40.985Z,95150.56
2022-11-05T18:09:11.704Z,95152.69
2022-11-05T18:11:40.269Z,95140.69
2022-11-05T18:14:08.281Z,95143.13
2022-11-05T18:16:36.774Z,95147.66
2022-11-05T18:19:04.090Z,95143.13
2022-11-05T18:21:31.555Z,95153.53
2022-11-05T18:23:58.969Z,95149.25
2022-11-05T18:26:26.432Z,95145.78
2022-11-05T18:28:55.348Z,95144.19
2022-11-05T18:31:22.780Z,95157.03
2022-11-05T18:33:51.189Z,95164.75
2022-11-05T18:36:22.959Z,95163.91
2022-11-05T18:38:50.490Z,95171.97
2022-11-05T18:41:18.719Z,95159.66
2022-11-05T18:43:46.354Z,95167.41
2022-11-05T18:46:35.843Z,95170.84
2022-11-05T18:49:03.208Z,95177.31
2022-11-05T18:51:30.688Z,95186.91
2022-11-05T18:53:57.762Z,95188.22
2022-11-05T18:56:25.047Z,95179.91
2022-11-05T18:59:08.633Z,95183.44
2022-11-05T19:01:42.509Z,95194.91
2022-11-05T19:04:10.215Z,95193.31
2022-11-05T19:06:38.718Z,95198.66
2022-11-05T19:09:09.130Z,95193.81
2022-11-05T19:11:36.686Z,95204.22
2022-11-05T19:14:04.353Z,95197.28
2022-11-05T19:16:32.265Z,95189.47
2022-11-05T19:19:01.925Z,95202.91
2022-11-05T19:21:29.763Z,95210.69
2022-11-05T19:24:01.428Z,95216.00
2022-11-05T19:26:29.413Z,95205.28
2022-11-05T19:29:01.875Z,95210.69
2022-11-05T19:31:30.760Z,95200.75
2022-11-05T19:33:58.025Z,95210.69
2022-11-05T19:36:26.111Z,95221.34
2022-11-05T19:39:06.390Z,95217.56
2022-11-05T19:41:33.939Z,95214.66
2022-11-05T19:44:04.359Z,95205.78
2022-11-05T19:46:32.945Z,95215.72
2022-11-05T19:49:01.450Z,95221.34
2022-11-05T19:51:31.495Z,95224.03
2022-11-05T19:54:01.634Z,95227.19
2022-11-05T19:56:32.924Z,95228.50
2022-11-05T19:59:01.443Z,95226.09
2022-11-05T20:01:30.278Z,95232.81
2022-11-05T20:03:59.058Z,95230.41
2022-11-05T20:06:37.818Z,95230.41
2022-11-05T20:09:24.252Z,95226.69
2022-11-05T20:12:02.665Z,95226.13
2022-11-05T20:14:31.016Z,95219.19
2022-11-05T20:16:58.102Z,95232.03
2022-11-05T20:19:25.377Z,95233.81
2022-11-05T20:21:52.861Z,95233.34
2022-11-05T20:24:24.840Z,95236.53
2022-11-05T20:26:56.280Z,95240.25
2022-11-05T20:29:30.544Z,95237.59
2022-11-05T20:32:02.130Z,95225.81
2022-11-05T20:34:30.707Z,95228.78
2022-11-05T20:36:58.209Z,95237.59
2022-11-05T20:39:25.501Z,95227.94
2022-11-05T20:41:53.378Z,95234.38
2022-11-05T20:44:20.790Z,95246.69
2022-11-05T20:46:47.995Z,95245.59
2022-11-05T20:49:17.256Z,95248.25
2022-11-05T20:51:46.117Z,95255.22
2022-11-05T20:54:13.463Z,95243.94
2022-11-05T20:56:42.175Z,95248.78
2022-11-05T20:59:10.221Z,95257.09
2022-11-05T21:01:37.909Z,95264.28
2022-11-05T21:04:05.323Z,95249.56
